Morris, Alabama
Current Conditions -  °F | °C
As of 10:53 PM on Sunday 21 Dec 2014 (Local Time) from KBHM Reporting Station
Overcast Overcast  
Wind Chill: 11°   Ceiling: 1100
Heat Index: 11°   Visibility: 10mi
Dew Point:   Wind: 9mph
Humidity: 86%   Direction: 100°E
Pressure: 30.05"   Gusts: NA
Location:  33.75°N, 86.81°W
Report Text: KBHM 220453Z 10008KT 10SM OVC011 11/08 A3005 RMK AO2 SLP176 T01060083
Loading
Personal Weather Stations






























Interactive Weather Map New forecast layout! Learn more

10-Day Weather Forecast

Advertisements
Track Severe Weather on mobile